createdAt,value
2018-05-18T05:01:56.331Z,95548.67
2018-05-18T05:04:30.365Z,95543.64
2018-05-18T05:07:03.655Z,95538.50
2018-05-18T05:09:36.924Z,95547.13
2018-05-18T05:12:10.968Z,95543.48
2018-05-18T05:14:44.237Z,95553.64
2018-05-18T05:17:18.276Z,95548.72
2018-05-18T05:19:51.548Z,95540.47
2018-05-18T05:22:25.605Z,95545.95
2018-05-18T05:24:58.851Z,95554.27
2018-05-18T05:27:32.897Z,95565.34
2018-05-18T05:30:06.164Z,95557.85
2018-05-18T05:32:40.203Z,95553.85
2018-05-18T05:35:13.464Z,95559.70
2018-05-18T05:37:47.516Z,95553.81
2018-05-18T05:40:20.777Z,95553.81
2018-05-18T05:42:54.823Z,95558.56
2018-05-18T05:45:28.084Z,95567.75
2018-05-18T05:48:01.364Z,95560.98
2018-05-18T05:50:35.665Z,95558.32
2018-05-18T05:53:09.160Z,95561.69
2018-05-18T05:55:42.708Z,95564.06
2018-05-18T05:58:16.175Z,95567.50
2018-05-18T06:00:50.325Z,95557.06
2018-05-18T06:03:23.613Z,95560.96
2018-05-18T06:05:56.876Z,95561.45
2018-05-18T06:08:30.926Z,95557.52
2018-05-18T06:11:04.186Z,95569.42
2018-05-18T06:13:38.240Z,95560.41
2018-05-18T06:16:11.541Z,95564.35
2018-05-18T06:18:44.798Z,95561.40
2018-05-18T06:21:18.083Z,95567.31
2018-05-18T06:23:51.343Z,95556.39
2018-05-18T06:26:24.621Z,95560.55
2018-05-18T06:28:57.884Z,95556.06
2018-05-18T06:31:31.164Z,95555.98
2018-05-18T06:34:05.200Z,95564.58
2018-05-18T06:36:38.481Z,95562.79
2018-05-18T06:39:11.744Z,95568.34
2018-05-18T06:41:45.080Z,95563.05
2018-05-18T06:44:18.349Z,95561.10
2018-05-18T06:46:52.407Z,95569.20
2018-05-18T06:49:25.652Z,95566.55
2018-05-18T06:51:59.700Z,95569.66
2018-05-18T06:54:32.965Z,95566.21
2018-05-18T06:57:06.247Z,95568.41
2018-05-18T06:59:40.282Z,95569.78
2018-05-18T07:02:13.560Z,95568.38
2018-05-18T07:04:47.584Z,95570.97
2018-05-18T07:07:20.893Z,95569.66
2018-05-18T07:09:54.155Z,95567.20
2018-05-18T07:12:27.436Z,95566.89
2018-05-18T07:15:00.699Z,95564.76
2018-05-18T07:17:33.970Z,95568.19
2018-05-18T07:20:07.258Z,95567.77
2018-05-18T07:22:40.540Z,95568.61
2018-05-18T07:25:15.711Z,95573.97
2018-05-18T07:27:48.987Z,95571.38
2018-05-18T07:30:22.260Z,95567.18
2018-05-18T07:32:56.303Z,95568.50
2018-05-18T07:35:29.559Z,95567.70
2018-05-18T07:38:02.849Z,95561.91
2018-05-18T07:40:36.104Z,95566.55
2018-05-18T07:43:09.389Z,95563.55
2018-05-18T07:45:42.650Z,95560.67
2018-05-18T07:48:16.699Z,95559.23
2018-05-18T07:50:49.951Z,95554.48
2018-05-18T07:53:23.268Z,95557.98
2018-05-18T07:55:56.521Z,95556.33
2018-05-18T07:58:30.589Z,95558.19
2018-05-18T08:01:03.856Z,95556.65
2018-05-18T08:03:37.253Z,95557.15
2018-05-18T08:06:10.503Z,95556.31
2018-05-18T08:08:43.800Z,95560.20
2018-05-18T08:11:19.775Z,95561.32
2018-05-18T08:13:53.055Z,95568.00
2018-05-18T08:16:26.316Z,95564.98
2018-05-18T08:18:59.601Z,95563.62
2018-05-18T08:21:32.955Z,95564.20
2018-05-18T08:24:06.920Z,95557.25
2018-05-18T08:26:40.180Z,95553.95
2018-05-18T08:29:31.335Z,95552.27
2018-05-18T08:32:04.607Z,95558.63
2018-05-18T08:34:37.900Z,95556.41
2018-05-18T08:37:11.171Z,95558.84
2018-05-18T08:39:45.212Z,95559.01
2018-05-18T08:42:18.476Z,95559.72
2018-05-18T08:44:52.605Z,95565.55
2018-05-18T08:47:25.788Z,95561.58
2018-05-18T08:49:59.921Z,95561.44
2018-05-18T08:52:33.104Z,95558.08
2018-05-18T08:55:06.391Z,95560.23
2018-05-18T08:57:39.663Z,95560.89
2018-05-18T09:00:13.708Z,95558.44
2018-05-18T09:02:46.966Z,95564.48
2018-05-18T09:05:21.026Z,95559.61
2018-05-18T09:07:54.286Z,95560.53
2018-05-18T09:10:28.333Z,95563.97
2018-05-18T09:13:01.592Z,95563.16
2018-05-18T09:15:34.887Z,95567.56
2018-05-18T09:18:08.148Z,95569.44
2018-05-18T09:20:41.431Z,95566.30
2018-05-18T09:23:14.707Z,95565.63
2018-05-18T09:25:47.980Z,95563.76
2018-05-18T09:28:21.245Z,95564.22
2018-05-18T09:30:55.283Z,95560.17
2018-05-18T09:33:29.376Z,95571.91
2018-05-18T09:36:03.448Z,95564.19
2018-05-18T09:38:36.707Z,95556.13
2018-05-18T09:41:09.987Z,95563.31
2018-05-18T09:43:43.252Z,95569.20
2018-05-18T09:46:16.548Z,95556.41
2018-05-18T09:48:49.812Z,95564.11
2018-05-18T09:51:23.102Z,95574.59
2018-05-18T09:53:56.369Z,95565.27
2018-05-18T09:56:29.648Z,95561.97
2018-05-18T09:59:02.913Z,95563.44
2018-05-18T10:01:36.195Z,95560.97
2018-05-18T10:04:09.455Z,95552.92
2018-05-18T10:06:42.733Z,95555.60
2018-05-18T10:09:16.002Z,95551.63
2018-05-18T10:11:50.062Z,95548.22
2018-05-18T10:14:23.318Z,95550.73
2018-05-18T10:16:57.369Z,95545.80
2018-05-18T10:19:30.629Z,95545.66
2018-05-18T10:22:03.923Z,95549.91
2018-05-18T10:24:37.952Z,95551.06
2018-05-18T10:27:11.232Z,95550.92
2018-05-18T10:29:44.492Z,95550.53
2018-05-18T10:32:17.767Z,95550.58
2018-05-18T10:34:51.024Z,95547.33
2018-05-18T10:37:24.308Z,95547.38
2018-05-18T10:39:57.576Z,95551.42
2018-05-18T10:42:30.844Z,95547.19
2018-05-18T10:45:04.100Z,95544.66
2018-05-18T10:47:37.411Z,95538.53
2018-05-18T10:50:10.679Z,95535.59
2018-05-18T10:52:43.961Z,95540.73
2018-05-18T10:55:17.236Z,95538.59
2018-05-18T10:57:50.528Z,95535.20
2018-05-18T11:00:23.793Z,95536.79
2018-05-18T11:02:57.087Z,95532.08
2018-05-18T11:05:30.348Z,95535.84
2018-05-18T11:08:03.632Z,95532.51
2018-05-18T11:10:36.891Z,95535.19
2018-05-18T11:13:10.178Z,95529.25
2018-05-18T11:15:43.448Z,95535.77
2018-05-18T11:18:16.737Z,95526.00
2018-05-18T11:20:49.992Z,95528.77
2018-05-18T11:23:24.038Z,95517.78
2018-05-18T11:25:57.288Z,95520.98
2018-05-18T11:28:30.573Z,95512.54
2018-05-18T11:31:03.825Z,95512.47
2018-05-18T11:33:37.118Z,95514.83
2018-05-18T11:36:10.393Z,95513.19
2018-05-18T11:38:43.669Z,95505.92
2018-05-18T11:41:16.929Z,95503.80
2018-05-18T11:43:50.200Z,95502.20
2018-05-18T11:46:23.468Z,95495.84
2018-05-18T11:48:56.753Z,95491.60
2018-05-18T11:51:30.015Z,95493.30
2018-05-18T11:54:03.284Z,95487.92
2018-05-18T11:56:36.547Z,95490.30
2018-05-18T11:59:09.825Z,95489.70
2018-05-18T12:01:43.856Z,95480.59
2018-05-18T12:04:17.144Z,95479.88
2018-05-18T12:06:50.407Z,95478.52
2018-05-18T12:09:23.700Z,95474.80
2018-05-18T12:11:56.960Z,95475.16
2018-05-18T12:14:30.251Z,95479.77
2018-05-18T12:17:03.525Z,95478.70
2018-05-18T12:19:36.793Z,95471.09
2018-05-18T12:22:10.830Z,95474.70
2018-05-18T12:24:44.117Z,95468.10
2018-05-18T12:27:17.367Z,95469.92
2018-05-18T12:29:50.657Z,95464.86
2018-05-18T12:32:23.910Z,95461.98
2018-05-18T12:34:57.191Z,95462.30
2018-05-18T12:37:34.768Z,95461.33
2018-05-18T12:40:08.821Z,95451.42
2018-05-18T12:42:42.071Z,95453.31
2018-05-18T12:45:15.359Z,95453.20
2018-05-18T12:47:49.384Z,95458.25
2018-05-18T12:50:22.659Z,95456.58
2018-05-18T12:52:55.931Z,95449.04
2018-05-18T12:55:29.208Z,95447.90
2018-05-18T12:58:02.470Z,95445.09
2018-05-18T13:00:35.746Z,95444.16
2018-05-18T13:03:09.766Z,95440.04
2018-05-18T13:05:43.801Z,95440.76
2018-05-18T13:08:17.139Z,95443.22
2018-05-18T13:10:51.103Z,95436.29
2018-05-18T13:13:24.366Z,95439.25
2018-05-18T13:15:57.701Z,95440.43
2018-05-18T13:18:31.671Z,95425.68
2018-05-18T13:21:04.951Z,95427.89
2018-05-18T13:23:38.212Z,95422.66
2018-05-18T13:26:12.258Z,95419.98
2018-05-18T13:28:45.522Z,95407.55
2018-05-18T13:31:18.802Z,95411.87
2018-05-18T13:33:52.064Z,95408.70
2018-05-18T13:36:25.355Z,95403.92
2018-05-18T13:38:59.375Z,95402.83
2018-05-18T13:41:32.870Z,95402.60
2018-05-18T13:44:06.148Z,95404.95
2018-05-18T13:46:40.185Z,95403.14
2018-05-18T13:49:13.440Z,95391.89
2018-05-18T13:51:46.835Z,95389.58
2018-05-18T13:54:20.786Z,95381.20
2018-05-18T13:56:54.092Z,95392.98
2018-05-18T13:59:27.351Z,95388.13
2018-05-18T14:02:01.588Z,95376.11
2018-05-18T14:04:34.843Z,95380.77
2018-05-18T14:07:08.132Z,95379.46
2018-05-18T14:09:41.395Z,95376.42
2018-05-18T14:12:14.694Z,95372.88
2018-05-18T14:14:47.972Z,95382.75
2018-05-18T14:17:21.277Z,95380.05
2018-05-18T14:19:54.544Z,95384.30
2018-05-18T14:22:27.846Z,95375.77
2018-05-18T14:25:01.097Z,95383.60
2018-05-18T14:27:34.526Z,95367.70
2018-05-18T14:30:08.552Z,95365.33
2018-05-18T14:32:41.852Z,95366.39
2018-05-18T14:35:15.116Z,95367.11
2018-05-18T14:37:49.171Z,95370.59
2018-05-18T14:40:22.405Z,95363.72
2018-05-18T14:42:56.451Z,95360.91
2018-05-18T14:45:29.781Z,95362.17
2018-05-18T14:48:02.980Z,95361.82
2018-05-18T14:50:36.239Z,95362.50
2018-05-18T14:53:09.511Z,95366.64
2018-05-18T14:55:43.532Z,95360.86
2018-05-18T14:58:16.817Z,95363.91
2018-05-18T15:00:50.837Z,95361.11
2018-05-18T15:03:24.107Z,95354.42
2018-05-18T15:05:58.136Z,95352.96
2018-05-18T15:08:31.405Z,95347.89
2018-05-18T15:11:04.713Z,95361.38
2018-05-18T15:13:37.971Z,95358.16
2018-05-18T15:16:11.230Z,95349.53
2018-05-18T15:18:44.502Z,95349.04
2018-05-18T15:21:17.771Z,95350.05
2018-05-18T15:23:51.811Z,95345.04
2018-05-18T15:26:25.069Z,95338.80
2018-05-18T15:28:58.348Z,95340.01
2018-05-18T15:31:31.609Z,95338.80
2018-05-18T15:34:04.887Z,95335.20
2018-05-18T15:36:38.148Z,95335.63
2018-05-18T15:39:11.436Z,95334.48
2018-05-18T15:41:44.679Z,95335.13
2018-05-18T15:44:17.965Z,95336.02
2018-05-18T15:46:51.219Z,95329.41
2018-05-18T15:49:24.570Z,95330.09
2018-05-18T15:51:57.747Z,95330.94
2018-05-18T15:54:31.249Z,95335.41
2018-05-18T15:57:04.512Z,95333.38
2018-05-18T15:59:37.803Z,95334.95
2018-05-18T16:02:11.064Z,95335.90
2018-05-18T16:04:44.376Z,95337.92
2018-05-18T16:07:17.632Z,95331.66
2018-05-18T16:09:51.013Z,95335.69
2018-05-18T16:12:24.272Z,95335.97
2018-05-18T16:14:57.568Z,95334.08
2018-05-18T16:17:31.598Z,95333.30
2018-05-18T16:20:05.895Z,95330.10
2018-05-18T16:22:39.924Z,95340.79
2018-05-18T16:25:13.219Z,95339.29
2018-05-18T16:27:47.241Z,95338.95
2018-05-18T16:30:20.532Z,95336.58
2018-05-18T16:32:54.560Z,95342.41
2018-05-18T16:35:27.831Z,95340.20
2018-05-18T16:38:01.856Z,95338.52
2018-05-18T16:40:35.235Z,95336.06
2018-05-18T16:43:08.492Z,95337.53
2018-05-18T16:45:41.777Z,95337.92
2018-05-18T16:48:15.051Z,95339.89
2018-05-18T16:50:48.358Z,95339.66
2018-05-18T16:53:21.589Z,95336.17
2018-05-18T16:55:54.865Z,95334.58
2018-05-18T16:58:28.121Z,95338.13
2018-05-18T17:01:01.787Z,95341.46
2018-05-18T17:03:35.178Z,95341.59
2018-05-18T17:06:08.719Z,95339.75
2018-05-18T17:08:42.100Z,95335.04
2018-05-18T17:11:15.754Z,95330.02
2018-05-18T17:13:49.235Z,95337.55
2018-05-18T17:16:22.635Z,95337.95
2018-05-18T17:18:55.973Z,95340.97
2018-05-18T17:21:30.237Z,95338.28
2018-05-18T17:24:03.699Z,95338.16
2018-05-18T17:26:37.911Z,95345.61
2018-05-18T17:29:12.025Z,95347.42
2018-05-18T17:31:45.533Z,95347.53
2018-05-18T17:34:18.941Z,95349.81
2018-05-18T17:36:52.200Z,95349.77
2018-05-18T17:39:26.232Z,95349.57
2018-05-18T17:41:59.515Z,95349.41
2018-05-18T17:44:33.544Z,95350.80
2018-05-18T17:47:06.820Z,95359.69
2018-05-18T17:49:40.844Z,95357.58
2018-05-18T17:52:14.899Z,95363.30
2018-05-18T17:54:48.156Z,95367.39
2018-05-18T17:57:21.430Z,95365.01
2018-05-18T17:59:54.683Z,95366.06
2018-05-18T18:02:27.953Z,95362.97
2018-05-18T18:05:01.213Z,95365.42
2018-05-18T18:07:35.261Z,95363.75
2018-05-18T18:10:08.531Z,95366.40
2018-05-18T18:12:42.582Z,95364.88
2018-05-18T18:15:15.836Z,95368.48
2018-05-18T18:17:49.102Z,95363.64
2018-05-18T18:20:22.355Z,95368.66
2018-05-18T18:22:55.643Z,95374.94
2018-05-18T18:25:28.896Z,95368.59
2018-05-18T18:28:02.183Z,95372.57
2018-05-18T18:30:35.950Z,95370.12
2018-05-18T18:33:10.678Z,95373.50
2018-05-18T18:35:43.962Z,95372.84
2018-05-18T18:38:17.235Z,95379.64
2018-05-18T18:40:50.505Z,95377.46
2018-05-18T18:43:23.786Z,95379.04
2018-05-18T18:45:57.044Z,95380.64
2018-05-18T18:48:30.323Z,95378.42
2018-05-18T18:51:03.584Z,95388.31
2018-05-18T18:53:37.625Z,95389.27
2018-05-18T18:56:10.877Z,95388.90
2018-05-18T18:58:44.210Z,95387.96
2018-05-18T19:01:17.426Z,95391.91
2018-05-18T19:03:50.696Z,95393.84
2018-05-18T19:06:24.096Z,95394.63
2018-05-18T19:08:57.367Z,95398.55
2018-05-18T19:11:31.404Z,95396.22
2018-05-18T19:14:04.688Z,95393.76
2018-05-18T19:16:37.957Z,95398.47
2018-05-18T19:19:11.237Z,95403.23
2018-05-18T19:21:44.504Z,95401.14
2018-05-18T19:24:17.868Z,95399.20
2018-05-18T19:26:51.071Z,95399.64
2018-05-18T19:29:24.332Z,95405.59
2018-05-18T19:31:57.618Z,95404.63
2018-05-18T19:34:30.872Z,95410.31
2018-05-18T19:37:04.163Z,95410.94
2018-05-18T19:39:37.422Z,95411.34
2018-05-18T19:42:11.465Z,95414.31
2018-05-18T19:44:44.729Z,95413.63
2018-05-18T19:47:17.999Z,95416.72
2018-05-18T19:49:51.271Z,95419.38
2018-05-18T19:52:24.549Z,95417.83
2018-05-18T19:54:57.805Z,95416.44
2018-05-18T19:57:31.157Z,95417.58
2018-05-18T20:00:04.364Z,95423.03
2018-05-18T20:02:37.644Z,95423.14
2018-05-18T20:05:10.913Z,95420.36
2018-05-18T20:07:44.189Z,95421.12
2018-05-18T20:10:17.449Z,95424.67
2018-05-18T20:12:50.725Z,95422.88
2018-05-18T20:15:23.986Z,95428.10
2018-05-18T20:17:57.276Z,95431.89
2018-05-18T20:20:30.533Z,95435.88
2018-05-18T20:23:03.812Z,95436.18
2018-05-18T20:25:37.080Z,95435.19
2018-05-18T20:28:10.360Z,95432.68
2018-05-18T20:30:43.621Z,95438.72
2018-05-18T20:33:16.914Z,95435.42
2018-05-18T20:35:50.942Z,95439.34
2018-05-18T20:38:24.224Z,95446.78
2018-05-18T20:40:57.496Z,95450.17
2018-05-18T20:43:31.540Z,95451.51
2018-05-18T20:46:04.795Z,95451.37
2018-05-18T20:48:38.082Z,95451.10
2018-05-18T20:51:11.337Z,95450.86
2018-05-18T20:53:44.609Z,95448.91
2018-05-18T20:56:17.867Z,95444.55
2018-05-18T20:58:51.152Z,95450.34
2018-05-18T21:01:24.414Z,95448.83
2018-05-18T21:03:57.717Z,95453.34
2018-05-18T21:06:30.972Z,95453.22
2018-05-18T21:09:04.261Z,95455.30
2018-05-18T21:11:38.276Z,95452.70
2018-05-18T21:14:11.556Z,95453.03
2018-05-18T21:16:44.817Z,95453.40
2018-05-18T21:19:18.096Z,95454.09
2018-05-18T21:21:51.349Z,95457.75
2018-05-18T21:24:25.391Z,95457.39
2018-05-18T21:26:58.651Z,95456.53
2018-05-18T21:29:32.699Z,95465.11
2018-05-18T21:32:05.956Z,95463.55
2018-05-18T21:34:39.996Z,95461.33
2018-05-18T21:37:13.260Z,95465.83
2018-05-18T21:39:47.313Z,95456.73
2018-05-18T21:42:20.580Z,95466.41
2018-05-18T21:44:53.862Z,95465.02
2018-05-18T21:47:27.883Z,95468.95
2018-05-18T21:50:01.179Z,95477.38
2018-05-18T21:52:34.428Z,95475.16
2018-05-18T21:55:07.713Z,95479.90
2018-05-18T21:57:40.963Z,95483.13
2018-05-18T22:00:14.244Z,95483.23
2018-05-18T22:02:48.292Z,95481.26
2018-05-18T22:05:21.543Z,95486.45
2018-05-18T22:07:55.592Z,95481.41
2018-05-18T22:10:28.862Z,95479.73
2018-05-18T22:13:02.146Z,95478.67
2018-05-18T22:15:35.404Z,95476.67
2018-05-18T22:18:08.675Z,95484.25
2018-05-18T22:20:41.931Z,95484.73
2018-05-18T22:23:15.980Z,95484.35
2018-05-18T22:25:49.234Z,95477.34
2018-05-18T22:28:23.285Z,95481.81
